sensor_id;sensor_type;location;lat;lon;timestamp;P1;durP1;ratioP1;P2;durP2;ratioP2
20954;SDS011;10636;19.390;-99.256;2023-03-01T00:00:07;10.07;;;7.70;;
20954;SDS011;10636;19.390;-99.256;2023-03-01T00:02:36;9.38;;;7.63;;
20954;SDS011;10636;19.390;-99.256;2023-03-01T00:05:05;8.27;;;7.38;;
20954;SDS011;10636;19.390;-99.256;2023-03-01T00:07:36;8.73;;;6.85;;
20954;SDS011;10636;19.390;-99.256;2023-03-01T00:10:05;8.32;;;6.88;;
20954;SDS011;10636;19.390;-99.256;2023-03-01T00:12:34;8.52;;;6.97;;
20954;SDS011;10636;19.390;-99.256;2023-03-01T00:15:03;10.30;;;6.85;;
20954;SDS011;10636;19.390;-99.256;2023-03-01T00:17:32;9.13;;;6.75;;
20954;SDS011;10636;19.390;-99.256;2023-03-01T00:20:01;8.05;;;6.63;;
20954;SDS011;10636;19.390;-99.256;2023-03-01T00:22:33;9.27;;;6.60;;
20954;SDS011;10636;19.390;-99.256;2023-03-01T00:25:04;8.65;;;6.88;;
20954;SDS011;10636;19.390;-99.256;2023-03-01T00:27:33;7.22;;;6.50;;
20954;SDS011;10636;19.390;-99.256;2023-03-01T00:30:02;7.03;;;6.30;;
20954;SDS011;10636;19.390;-99.256;2023-03-01T00:32:31;12.60;;;7.07;;
20954;SDS011;10636;19.390;-99.256;2023-03-01T00:34:59;7.22;;;6.35;;
20954;SDS011;10636;19.390;-99.256;2023-03-01T00:37:28;6.93;;;6.30;;
20954;SDS011;10636;19.390;-99.256;2023-03-01T00:39:56;7.97;;;6.35;;
20954;SDS011;10636;19.390;-99.256;2023-03-01T00:42:33;7.32;;;6.43;;
20954;SDS011;10636;19.390;-99.256;2023-03-01T00:45:01;6.38;;;5.25;;
20954;SDS011;10636;19.390;-99.256;2023-03-01T00:47:30;10.77;;;6.63;;
20954;SDS011;10636;19.390;-99.256;2023-03-01T00:49:59;7.05;;;6.18;;
20954;SDS011;10636;19.390;-99.256;2023-03-01T00:52:27;9.85;;;6.40;;
20954;SDS011;10636;19.390;-99.256;2023-03-01T00:54:56;7.45;;;6.65;;
20954;SDS011;10636;19.390;-99.256;2023-03-01T00:57:25;6.90;;;6.20;;
20954;SDS011;10636;19.390;-99.256;2023-03-01T00:59:55;6.78;;;6.10;;
20954;SDS011;10636;19.390;-99.256;2023-03-01T01:02:24;7.65;;;6.45;;
20954;SDS011;10636;19.390;-99.256;2023-03-01T01:04:53;6.40;;;5.47;;
20954;SDS011;10636;19.390;-99.256;2023-03-01T01:07:21;7.43;;;6.00;;
20954;SDS011;10636;19.390;-99.256;2023-03-01T01:09:50;6.40;;;5.53;;
20954;SDS011;10636;19.390;-99.256;2023-03-01T01:12:18;6.57;;;5.93;;
20954;SDS011;10636;19.390;-99.256;2023-03-01T01:14:47;6.15;;;5.55;;
20954;SDS011;10636;19.390;-99.256;2023-03-01T01:17:17;7.82;;;6.05;;
20954;SDS011;10636;19.390;-99.256;2023-03-01T01:19:46;7.32;;;5.10;;
20954;SDS011;10636;19.390;-99.256;2023-03-01T01:22:14;6.38;;;5.53;;
20954;SDS011;10636;19.390;-99.256;2023-03-01T01:24:43;6.00;;;5.32;;
20954;SDS011;10636;19.390;-99.256;2023-03-01T01:27:11;5.40;;;4.90;;
20954;SDS011;10636;19.390;-99.256;2023-03-01T01:29:40;6.18;;;5.60;;
20954;SDS011;10636;19.390;-99.256;2023-03-01T01:32:09;6.05;;;5.13;;
20954;SDS011;10636;19.390;-99.256;2023-03-01T01:34:39;7.43;;;5.22;;
20954;SDS011;10636;19.390;-99.256;2023-03-01T01:37:07;5.70;;;5.20;;
20954;SDS011;10636;19.390;-99.256;2023-03-01T01:39:39;6.38;;;5.78;;
20954;SDS011;10636;19.390;-99.256;2023-03-01T01:42:09;6.50;;;5.47;;
20954;SDS011;10636;19.390;-99.256;2023-03-01T01:44:44;5.75;;;5.25;;
20954;SDS011;10636;19.390;-99.256;2023-03-01T01:47:14;5.65;;;5.15;;
20954;SDS011;10636;19.390;-99.256;2023-03-01T01:49:49;7.00;;;5.03;;
20954;SDS011;10636;19.390;-99.256;2023-03-01T01:52:20;6.82;;;5.10;;
20954;SDS011;10636;19.390;-99.256;2023-03-01T01:54:53;6.05;;;5.45;;
20954;SDS011;10636;19.390;-99.256;2023-03-01T01:57:29;6.68;;;5.63;;
20954;SDS011;10636;19.390;-99.256;2023-03-01T02:00:05;6.95;;;5.65;;
20954;SDS011;10636;19.390;-99.256;2023-03-01T02:02:36;8.15;;;5.47;;
20954;SDS011;10636;19.390;-99.256;2023-03-01T02:05:09;6.70;;;5.30;;
20954;SDS011;10636;19.390;-99.256;2023-03-01T02:07:42;7.03;;;5.20;;
20954;SDS011;10636;19.390;-99.256;2023-03-01T02:10:12;8.52;;;5.90;;
20954;SDS011;10636;19.390;-99.256;2023-03-01T02:12:40;6.13;;;5.53;;
20954;SDS011;10636;19.390;-99.256;2023-03-01T02:15:10;8.25;;;5.68;;
20954;SDS011;10636;19.390;-99.256;2023-03-01T02:17:39;7.95;;;5.80;;
20954;SDS011;10636;19.390;-99.256;2023-03-01T02:20:12;6.10;;;5.50;;
20954;SDS011;10636;19.390;-99.256;2023-03-01T02:22:50;6.53;;;5.60;;
20954;SDS011;10636;19.390;-99.256;2023-03-01T02:25:25;6.07;;;5.47;;
20954;SDS011;10636;19.390;-99.256;2023-03-01T02:27:58;6.35;;;5.53;;
20954;SDS011;10636;19.390;-99.256;2023-03-01T02:30:37;7.20;;;5.78;;
20954;SDS011;10636;19.390;-99.256;2023-03-01T02:33:26;6.90;;;5.30;;
20954;SDS011;10636;19.390;-99.256;2023-03-01T02:35:58;6.53;;;5.75;;
20954;SDS011;10636;19.390;-99.256;2023-03-01T02:38:28;6.10;;;5.50;;
20954;SDS011;10636;19.390;-99.256;2023-03-01T02:40:57;6.40;;;5.28;;
20954;SDS011;10636;19.390;-99.256;2023-03-01T02:43:29;6.60;;;5.45;;
20954;SDS011;10636;19.390;-99.256;2023-03-01T02:46:04;6.57;;;5.60;;
20954;SDS011;10636;19.390;-99.256;2023-03-01T02:48:41;7.40;;;5.78;;
20954;SDS011;10636;19.390;-99.256;2023-03-01T02:51:13;6.55;;;5.32;;
20954;SDS011;10636;19.390;-99.256;2023-03-01T02:54:03;7.30;;;5.50;;
20954;SDS011;10636;19.390;-99.256;2023-03-01T02:56:39;6.78;;;5.65;;
20954;SDS011;10636;19.390;-99.256;2023-03-01T02:59:10;9.00;;;5.68;;
20954;SDS011;10636;19.390;-99.256;2023-03-01T03:01:40;7.57;;;5.97;;
20954;SDS011;10636;19.390;-99.256;2023-03-01T03:04:09;5.93;;;5.43;;
20954;SDS011;10636;19.390;-99.256;2023-03-01T03:06:42;7.28;;;5.95;;
20954;SDS011;10636;19.390;-99.256;2023-03-01T03:09:12;6.35;;;5.75;;
20954;SDS011;10636;19.390;-99.256;2023-03-01T03:11:44;7.95;;;6.43;;
20954;SDS011;10636;19.390;-99.256;2023-03-01T03:14:13;6.60;;;5.95;;
20954;SDS011;10636;19.390;-99.256;2023-03-01T03:16:45;12.15;;;6.60;;
20954;SDS011;10636;19.390;-99.256;2023-03-01T03:19:14;8.82;;;6.70;;
20954;SDS011;10636;19.390;-99.256;2023-03-01T03:21:43;8.35;;;7.55;;
20954;SDS011;10636;19.390;-99.256;2023-03-01T03:24:12;9.30;;;7.10;;
20954;SDS011;10636;19.390;-99.256;2023-03-01T03:26:41;8.50;;;6.90;;
20954;SDS011;10636;19.390;-99.256;2023-03-01T03:29:09;9.48;;;6.97;;
20954;SDS011;10636;19.390;-99.256;2023-03-01T03:31:38;8.00;;;6.93;;
20954;SDS011;10636;19.390;-99.256;2023-03-01T03:34:08;9.48;;;7.20;;
20954;SDS011;10636;19.390;-99.256;2023-03-01T03:36:43;7.82;;;6.45;;
20954;SDS011;10636;19.390;-99.256;2023-03-01T03:39:12;9.90;;;6.90;;
20954;SDS011;10636;19.390;-99.256;2023-03-01T03:41:40;8.68;;;7.00;;
20954;SDS011;10636;19.390;-99.256;2023-03-01T03:44:09;8.02;;;6.63;;
20954;SDS011;10636;19.390;-99.256;2023-03-01T03:46:37;10.10;;;7.03;;
20954;SDS011;10636;19.390;-99.256;2023-03-01T03:49:08;7.40;;;6.50;;
20954;SDS011;10636;19.390;-99.256;2023-03-01T03:51:36;9.00;;;7.35;;
20954;SDS011;10636;19.390;-99.256;2023-03-01T03:54:05;8.32;;;7.00;;
20954;SDS011;10636;19.390;-99.256;2023-03-01T03:56:34;7.80;;;7.00;;
20954;SDS011;10636;19.390;-99.256;2023-03-01T03:59:02;10.00;;;7.50;;
20954;SDS011;10636;19.390;-99.256;2023-03-01T04:01:31;8.25;;;7.10;;
20954;SDS011;10636;19.390;-99.256;2023-03-01T04:04:00;9.23;;;7.28;;
20954;SDS011;10636;19.390;-99.256;2023-03-01T04:06:31;10.80;;;7.20;;
20954;SDS011;10636;19.390;-99.256;2023-03-01T04:09:00;9.82;;;7.40;;
20954;SDS011;10636;19.390;-99.256;2023-03-01T04:11:29;8.27;;;6.88;;
20954;SDS011;10636;19.390;-99.256;2023-03-01T04:14:00;8.07;;;6.43;;
20954;SDS011;10636;19.390;-99.256;2023-03-01T04:16:29;9.13;;;7.05;;
20954;SDS011;10636;19.390;-99.256;2023-03-01T04:18:58;6.50;;;5.78;;
20954;SDS011;10636;19.390;-99.256;2023-03-01T04:21:27;7.35;;;6.60;;
20954;SDS011;10636;19.390;-99.256;2023-03-01T04:23:57;8.43;;;6.68;;
20954;SDS011;10636;19.390;-99.256;2023-03-01T04:26:25;8.98;;;6.43;;
20954;SDS011;10636;19.390;-99.256;2023-03-01T04:28:54;7.20;;;6.50;;
20954;SDS011;10636;19.390;-99.256;2023-03-01T04:31:23;7.35;;;6.65;;
20954;SDS011;10636;19.390;-99.256;2023-03-01T04:33:51;7.20;;;6.35;;
20954;SDS011;10636;19.390;-99.256;2023-03-01T04:36:22;6.53;;;5.93;;
20954;SDS011;10636;19.390;-99.256;2023-03-01T04:38:52;7.00;;;6.30;;
20954;SDS011;10636;19.390;-99.256;2023-03-01T04:41:23;7.78;;;6.93;;
20954;SDS011;10636;19.390;-99.256;2023-03-01T04:43:55;7.18;;;6.10;;
20954;SDS011;10636;19.390;-99.256;2023-03-01T04:46:25;6.90;;;6.30;;
20954;SDS011;10636;19.390;-99.256;2023-03-01T04:48:54;6.90;;;6.28;;
20954;SDS011;10636;19.390;-99.256;2023-03-01T04:51:22;7.35;;;6.32;;
20954;SDS011;10636;19.390;-99.256;2023-03-01T04:53:51;7.78;;;6.10;;
20954;SDS011;10636;19.390;-99.256;2023-03-01T04:56:19;8.60;;;6.05;;
20954;SDS011;10636;19.390;-99.256;2023-03-01T04:58:52;8.10;;;6.90;;
20954;SDS011;10636;19.390;-99.256;2023-03-01T05:01:21;7.55;;;6.85;;
20954;SDS011;10636;19.390;-99.256;2023-03-01T05:03:50;8.27;;;6.40;;
20954;SDS011;10636;19.390;-99.256;2023-03-01T05:06:20;7.30;;;6.60;;
20954;SDS011;10636;19.390;-99.256;2023-03-01T05:08:49;6.88;;;6.32;;
20954;SDS011;10636;19.390;-99.256;2023-03-01T05:11:17;7.10;;;6.18;;
20954;SDS011;10636;19.390;-99.256;2023-03-01T05:13:47;7.60;;;6.70;;
20954;SDS011;10636;19.390;-99.256;2023-03-01T05:16:20;7.15;;;6.45;;
20954;SDS011;10636;19.390;-99.256;2023-03-01T05:18:49;7.22;;;6.53;;
20954;SDS011;10636;19.390;-99.256;2023-03-01T05:21:22;8.75;;;6.72;;
20954;SDS011;10636;19.390;-99.256;2023-03-01T05:23:51;7.32;;;6.63;;
20954;SDS011;10636;19.390;-99.256;2023-03-01T05:26:22;6.93;;;6.25;;
20954;SDS011;10636;19.390;-99.256;2023-03-01T05:28:55;8.82;;;6.55;;
20954;SDS011;10636;19.390;-99.256;2023-03-01T05:31:24;6.80;;;6.20;;
20954;SDS011;10636;19.390;-99.256;2023-03-01T05:33:53;7.28;;;6.68;;
20954;SDS011;10636;19.390;-99.256;2023-03-01T05:36:21;7.13;;;6.43;;
20954;SDS011;10636;19.390;-99.256;2023-03-01T05:38:50;7.55;;;6.57;;
20954;SDS011;10636;19.390;-99.256;2023-03-01T05:41:19;7.70;;;6.90;;
20954;SDS011;10636;19.390;-99.256;2023-03-01T05:43:47;7.10;;;6.40;;
20954;SDS011;10636;19.390;-99.256;2023-03-01T05:46:17;7.28;;;6.50;;
20954;SDS011;10636;19.390;-99.256;2023-03-01T05:48:46;7.07;;;6.47;;
20954;SDS011;10636;19.390;-99.256;2023-03-01T05:51:15;7.65;;;6.93;;
20954;SDS011;10636;19.390;-99.256;2023-03-01T05:53:43;7.10;;;6.40;;
20954;SDS011;10636;19.390;-99.256;2023-03-01T05:56:12;7.75;;;6.70;;
20954;SDS011;10636;19.390;-99.256;2023-03-01T05:58:40;6.93;;;6.30;;
20954;SDS011;10636;19.390;-99.256;2023-03-01T06:01:11;6.63;;;6.03;;
20954;SDS011;10636;19.390;-99.256;2023-03-01T06:03:41;7.55;;;6.50;;
20954;SDS011;10636;19.390;-99.256;2023-03-01T06:06:10;6.07;;;5.57;;
20954;SDS011;10636;19.390;-99.256;2023-03-01T06:08:38;7.45;;;6.18;;
20954;SDS011;10636;19.390;-99.256;2023-03-01T06:11:10;6.72;;;6.13;;
20954;SDS011;10636;19.390;-99.256;2023-03-01T06:13:38;7.00;;;6.30;;
20954;SDS011;10636;19.390;-99.256;2023-03-01T06:16:08;6.43;;;5.82;;
20954;SDS011;10636;19.390;-99.256;2023-03-01T06:18:37;6.45;;;5.95;;
20954;SDS011;10636;19.390;-99.256;2023-03-01T06:21:08;7.15;;;6.45;;
20954;SDS011;10636;19.390;-99.256;2023-03-01T06:23:36;6.50;;;5.90;;
20954;SDS011;10636;19.390;-99.256;2023-03-01T06:26:05;5.88;;;5.38;;
20954;SDS011;10636;19.390;-99.256;2023-03-01T06:28:34;6.47;;;5.95;;
20954;SDS011;10636;19.390;-99.256;2023-03-01T06:31:03;6.47;;;5.88;;
20954;SDS011;10636;19.390;-99.256;2023-03-01T06:33:34;6.60;;;6.00;;
20954;SDS011;10636;19.390;-99.256;2023-03-01T06:36:03;7.82;;;6.82;;
20954;SDS011;10636;19.390;-99.256;2023-03-01T06:38:34;6.80;;;6.10;;
20954;SDS011;10636;19.390;-99.256;2023-03-01T06:41:04;8.30;;;6.50;;
20954;SDS011;10636;19.390;-99.256;2023-03-01T06:43:33;9.43;;;6.25;;
20954;SDS011;10636;19.390;-99.256;2023-03-01T06:46:03;6.63;;;5.93;;
20954;SDS011;10636;19.390;-99.256;2023-03-01T06:48:33;7.15;;;6.18;;
20954;SDS011;10636;19.390;-99.256;2023-03-01T06:51:03;7.25;;;6.50;;
20954;SDS011;10636;19.390;-99.256;2023-03-01T06:53:32;7.40;;;6.70;;
20954;SDS011;10636;19.390;-99.256;2023-03-01T06:56:03;7.25;;;6.03;;
20954;SDS011;10636;19.390;-99.256;2023-03-01T06:58:32;6.82;;;6.13;;
20954;SDS011;10636;19.390;-99.256;2023-03-01T07:01:05;6.80;;;6.18;;
20954;SDS011;10636;19.390;-99.256;2023-03-01T07:03:34;6.85;;;6.30;;
20954;SDS011;10636;19.390;-99.256;2023-03-01T07:06:03;6.57;;;5.97;;
20954;SDS011;10636;19.390;-99.256;2023-03-01T07:08:34;6.97;;;6.28;;
20954;SDS011;10636;19.390;-99.256;2023-03-01T07:11:04;6.50;;;5.95;;
20954;SDS011;10636;19.390;-99.256;2023-03-01T07:13:33;6.47;;;5.97;;
20954;SDS011;10636;19.390;-99.256;2023-03-01T07:16:03;6.68;;;6.07;;
20954;SDS011;10636;19.390;-99.256;2023-03-01T07:18:32;6.63;;;6.03;;
20954;SDS011;10636;19.390;-99.256;2023-03-01T07:21:04;6.40;;;5.80;;
20954;SDS011;10636;19.390;-99.256;2023-03-01T07:23:35;7.18;;;5.97;;
20954;SDS011;10636;19.390;-99.256;2023-03-01T07:26:04;6.20;;;5.70;;
20954;SDS011;10636;19.390;-99.256;2023-03-01T07:28:33;6.07;;;5.53;;
20954;SDS011;10636;19.390;-99.256;2023-03-01T07:31:04;6.65;;;6.05;;
20954;SDS011;10636;19.390;-99.256;2023-03-01T07:33:34;7.20;;;6.50;;
20954;SDS011;10636;19.390;-99.256;2023-03-01T07:36:03;7.20;;;6.55;;
20954;SDS011;10636;19.390;-99.256;2023-03-01T07:38:35;7.30;;;6.57;;
20954;SDS011;10636;19.390;-99.256;2023-03-01T07:41:04;7.68;;;6.55;;
20954;SDS011;10636;19.390;-99.256;2023-03-01T07:43:33;7.03;;;6.32;;
20954;SDS011;10636;19.390;-99.256;2023-03-01T07:46:02;6.43;;;5.82;;
20954;SDS011;10636;19.390;-99.256;2023-03-01T07:48:31;7.18;;;6.47;;
20954;SDS011;10636;19.390;-99.256;2023-03-01T07:51:01;6.63;;;6.03;;
20954;SDS011;10636;19.390;-99.256;2023-03-01T07:53:31;6.63;;;6.03;;
20954;SDS011;10636;19.390;-99.256;2023-03-01T07:56:03;6.50;;;6.00;;
20954;SDS011;10636;19.390;-99.256;2023-03-01T07:58:34;6.30;;;5.70;;
20954;SDS011;10636;19.390;-99.256;2023-03-01T08:01:03;6.50;;;5.90;;
20954;SDS011;10636;19.390;-99.256;2023-03-01T08:03:33;6.25;;;5.65;;
20954;SDS011;10636;19.390;-99.256;2023-03-01T08:06:03;7.22;;;6.32;;
20954;SDS011;10636;19.390;-99.256;2023-03-01T08:08:33;7.32;;;6.63;;
20954;SDS011;10636;19.390;-99.256;2023-03-01T08:11:06;6.90;;;6.20;;
20954;SDS011;10636;19.390;-99.256;2023-03-01T08:13:36;7.22;;;6.40;;
20954;SDS011;10636;19.390;-99.256;2023-03-01T08:16:05;6.95;;;6.35;;
20954;SDS011;10636;19.390;-99.256;2023-03-01T08:18:35;6.88;;;6.28;;
20954;SDS011;10636;19.390;-99.256;2023-03-01T08:21:05;6.90;;;6.20;;
20954;SDS011;10636;19.390;-99.256;2023-03-01T08:23:36;6.97;;;6.38;;
20954;SDS011;10636;19.390;-99.256;2023-03-01T08:26:08;7.22;;;6.63;;
20954;SDS011;10636;19.390;-99.256;2023-03-01T08:28:39;6.93;;;6.13;;
20954;SDS011;10636;19.390;-99.256;2023-03-01T08:31:15;6.70;;;6.10;;
20954;SDS011;10636;19.390;-99.256;2023-03-01T08:33:46;7.13;;;6.43;;
20954;SDS011;10636;19.390;-99.256;2023-03-01T08:36:17;7.18;;;6.53;;
20954;SDS011;10636;19.390;-99.256;2023-03-01T08:38:46;8.10;;;6.45;;
20954;SDS011;10636;19.390;-99.256;2023-03-01T08:41:17;7.10;;;6.40;;
20954;SDS011;10636;19.390;-99.256;2023-03-01T08:43:47;7.30;;;6.60;;
20954;SDS011;10636;19.390;-99.256;2023-03-01T08:46:16;6.85;;;6.25;;
20954;SDS011;10636;19.390;-99.256;2023-03-01T08:48:45;7.10;;;6.47;;
20954;SDS011;10636;19.390;-99.256;2023-03-01T08:51:15;7.13;;;6.43;;
20954;SDS011;10636;19.390;-99.256;2023-03-01T08:53:45;7.50;;;6.68;;
20954;SDS011;10636;19.390;-99.256;2023-03-01T08:56:15;7.40;;;6.70;;
20954;SDS011;10636;19.390;-99.256;2023-03-01T08:58:47;7.15;;;6.53;;
20954;SDS011;10636;19.390;-99.256;2023-03-01T09:01:17;7.22;;;6.63;;
20954;SDS011;10636;19.390;-99.256;2023-03-01T09:03:47;7.05;;;6.45;;
20954;SDS011;10636;19.390;-99.256;2023-03-01T09:06:16;7.03;;;6.43;;
20954;SDS011;10636;19.390;-99.256;2023-03-01T09:08:46;7.20;;;6.60;;
20954;SDS011;10636;19.390;-99.256;2023-03-01T09:11:18;6.88;;;6.18;;
20954;SDS011;10636;19.390;-99.256;2023-03-01T09:13:48;7.18;;;6.57;;
20954;SDS011;10636;19.390;-99.256;2023-03-01T09:16:18;7.05;;;6.35;;
20954;SDS011;10636;19.390;-99.256;2023-03-01T09:18:49;7.07;;;6.38;;
20954;SDS011;10636;19.390;-99.256;2023-03-01T09:21:19;7.05;;;6.35;;
20954;SDS011;10636;19.390;-99.256;2023-03-01T09:23:49;6.78;;;6.13;;
20954;SDS011;10636;19.390;-99.256;2023-03-01T09:26:21;7.05;;;6.45;;
20954;SDS011;10636;19.390;-99.256;2023-03-01T09:28:51;6.88;;;6.25;;
20954;SDS011;10636;19.390;-99.256;2023-03-01T09:31:22;6.80;;;6.20;;
20954;SDS011;10636;19.390;-99.256;2023-03-01T09:33:52;6.65;;;6.05;;
20954;SDS011;10636;19.390;-99.256;2023-03-01T09:36:22;6.85;;;6.25;;
20954;SDS011;10636;19.390;-99.256;2023-03-01T09:38:52;6.82;;;6.18;;
20954;SDS011;10636;19.390;-99.256;2023-03-01T09:44:13;6.65;;;6.05;;
20954;SDS011;10636;19.390;-99.256;2023-03-01T09:46:57;6.80;;;6.20;;
20954;SDS011;10636;19.390;-99.256;2023-03-01T09:49:28;6.55;;;5.95;;
20954;SDS011;10636;19.390;-99.256;2023-03-01T09:52:00;6.82;;;6.22;;
20954;SDS011;10636;19.390;-99.256;2023-03-01T09:54:46;6.68;;;6.15;;
20954;SDS011;10636;19.390;-99.256;2023-03-01T09:57:20;6.45;;;5.85;;
20954;SDS011;10636;19.390;-99.256;2023-03-01T10:00:12;6.75;;;6.15;;
20954;SDS011;10636;19.390;-99.256;2023-03-01T10:02:57;7.35;;;6.75;;
20954;SDS011;10636;19.390;-99.256;2023-03-01T10:05:39;6.80;;;6.20;;
20954;SDS011;10636;19.390;-99.256;2023-03-01T10:08:25;6.80;;;6.20;;
20954;SDS011;10636;19.390;-99.256;2023-03-01T10:10:59;6.82;;;6.25;;
20954;SDS011;10636;19.390;-99.256;2023-03-01T10:13:32;6.32;;;5.82;;
20954;SDS011;10636;19.390;-99.256;2023-03-01T10:16:09;6.50;;;5.88;;
20954;SDS011;10636;19.390;-99.256;2023-03-01T10:18:42;6.85;;;6.18;;
20954;SDS011;10636;19.390;-99.256;2023-03-01T10:21:17;6.80;;;6.20;;
20954;SDS011;10636;19.390;-99.256;2023-03-01T10:23:49;7.20;;;6.60;;
20954;SDS011;10636;19.390;-99.256;2023-03-01T10:26:32;6.60;;;6.10;;
20954;SDS011;10636;19.390;-99.256;2023-03-01T10:29:13;6.90;;;6.30;;
20954;SDS011;10636;19.390;-99.256;2023-03-01T10:31:43;7.00;;;6.38;;
20954;SDS011;10636;19.390;-99.256;2023-03-01T10:34:14;7.00;;;6.30;;
20954;SDS011;10636;19.390;-99.256;2023-03-01T10:36:46;6.40;;;5.90;;
20954;SDS011;10636;19.390;-99.256;2023-03-01T10:39:17;7.30;;;6.63;;
20954;SDS011;10636;19.390;-99.256;2023-03-01T10:42:00;7.32;;;6.68;;
20954;SDS011;10636;19.390;-99.256;2023-03-01T10:44:38;7.30;;;6.55;;
20954;SDS011;10636;19.390;-99.256;2023-03-01T10:47:13;6.90;;;6.30;;
20954;SDS011;10636;19.390;-99.256;2023-03-01T10:52:55;6.97;;;6.30;;
20954;SDS011;10636;19.390;-99.256;2023-03-01T10:55:28;7.18;;;6.57;;
20954;SDS011;10636;19.390;-99.256;2023-03-01T10:58:08;6.97;;;6.38;;
20954;SDS011;10636;19.390;-99.256;2023-03-01T11:00:47;6.85;;;6.25;;
20954;SDS011;10636;19.390;-99.256;2023-03-01T11:03:19;6.47;;;5.93;;
20954;SDS011;10636;19.390;-99.256;2023-03-01T11:05:55;6.95;;;6.40;;
20954;SDS011;10636;19.390;-99.256;2023-03-01T11:08:29;6.95;;;6.45;;
20954;SDS011;10636;19.390;-99.256;2023-03-01T11:11:19;7.13;;;6.53;;
20954;SDS011;10636;19.390;-99.256;2023-03-01T11:13:57;7.15;;;6.57;;
20954;SDS011;10636;19.390;-99.256;2023-03-01T11:16:33;6.47;;;5.97;;
20954;SDS011;10636;19.390;-99.256;2023-03-01T11:19:17;6.50;;;6.00;;
20954;SDS011;10636;19.390;-99.256;2023-03-01T11:21:52;6.88;;;6.28;;
20954;SDS011;10636;19.390;-99.256;2023-03-01T11:24:33;7.28;;;6.57;;
20954;SDS011;10636;19.390;-99.256;2023-03-01T11:27:08;7.45;;;6.55;;
20954;SDS011;10636;19.390;-99.256;2023-03-01T11:29:46;7.78;;;6.20;;
20954;SDS011;10636;19.390;-99.256;2023-03-01T11:32:22;6.47;;;5.80;;
20954;SDS011;10636;19.390;-99.256;2023-03-01T11:34:55;7.20;;;6.55;;
20954;SDS011;10636;19.390;-99.256;2023-03-01T11:37:31;6.97;;;6.40;;
20954;SDS011;10636;19.390;-99.256;2023-03-01T11:40:05;6.40;;;5.80;;
20954;SDS011;10636;19.390;-99.256;2023-03-01T11:42:48;6.78;;;6.18;;
20954;SDS011;10636;19.390;-99.256;2023-03-01T11:45:24;6.93;;;6.32;;
20954;SDS011;10636;19.390;-99.256;2023-03-01T11:48:12;8.95;;;6.90;;
20954;SDS011;10636;19.390;-99.256;2023-03-01T11:50:55;10.77;;;8.43;;
20954;SDS011;10636;19.390;-99.256;2023-03-01T11:53:33;7.90;;;7.10;;
20954;SDS011;10636;19.390;-99.256;2023-03-01T11:56:18;9.27;;;7.00;;
20954;SDS011;10636;19.390;-99.256;2023-03-01T11:58:56;8.95;;;7.18;;
20954;SDS011;10636;19.390;-99.256;2023-03-01T12:01:51;25.52;;;23.17;;
20954;SDS011;10636;19.390;-99.256;2023-03-01T12:04:59;33.05;;;29.48;;
20954;SDS011;10636;19.390;-99.256;2023-03-01T12:07:41;29.38;;;26.38;;
20954;SDS011;10636;19.390;-99.256;2023-03-01T12:10:20;27.33;;;24.42;;
20954;SDS011;10636;19.390;-99.256;2023-03-01T12:12:58;25.45;;;23.05;;
20954;SDS011;10636;19.390;-99.256;2023-03-01T12:21:42;22.90;;;20.80;;
20954;SDS011;10636;19.390;-99.256;2023-03-01T12:24:32;17.45;;;15.60;;
20954;SDS011;10636;19.390;-99.256;2023-03-01T12:27:36;17.98;;;16.10;;
20954;SDS011;10636;19.390;-99.256;2023-03-01T12:30:17;14.10;;;12.60;;
20954;SDS011;10636;19.390;-99.256;2023-03-01T12:33:02;14.55;;;12.23;;
20954;SDS011;10636;19.390;-99.256;2023-03-01T12:35:47;13.07;;;11.00;;
20954;SDS011;10636;19.390;-99.256;2023-03-01T12:38:37;11.15;;;9.60;;
20954;SDS011;10636;19.390;-99.256;2023-03-01T12:41:16;10.77;;;9.68;;
20954;SDS011;10636;19.390;-99.256;2023-03-01T12:44:01;11.70;;;9.15;;
20954;SDS011;10636;19.390;-99.256;2023-03-01T12:46:54;10.50;;;9.23;;
20954;SDS011;10636;19.390;-99.256;2023-03-01T12:49:44;10.40;;;8.32;;
20954;SDS011;10636;19.390;-99.256;2023-03-01T12:52:18;9.82;;;8.73;;
20954;SDS011;10636;19.390;-99.256;2023-03-01T12:54:53;11.45;;;9.10;;
20954;SDS011;10636;19.390;-99.256;2023-03-01T12:57:26;9.40;;;8.50;;
20954;SDS011;10636;19.390;-99.256;2023-03-01T13:00:05;11.13;;;8.85;;
20954;SDS011;10636;19.390;-99.256;2023-03-01T13:02:52;11.25;;;8.90;;
20954;SDS011;10636;19.390;-99.256;2023-03-01T13:05:29;11.40;;;8.15;;
20954;SDS011;10636;19.390;-99.256;2023-03-01T13:08:08;11.75;;;8.57;;
20954;SDS011;10636;19.390;-99.256;2023-03-01T13:10:46;10.32;;;9.23;;
20954;SDS011;10636;19.390;-99.256;2023-03-01T13:13:21;9.18;;;8.27;;
20954;SDS011;10636;19.390;-99.256;2023-03-01T13:15:51;11.73;;;8.40;;
20954;SDS011;10636;19.390;-99.256;2023-03-01T13:21:09;13.07;;;8.57;;
20954;SDS011;10636;19.390;-99.256;2023-03-01T13:23:38;9.93;;;8.55;;
20954;SDS011;10636;19.390;-99.256;2023-03-01T13:26:11;12.43;;;8.43;;
20954;SDS011;10636;19.390;-99.256;2023-03-01T13:28:48;13.75;;;9.13;;
20954;SDS011;10636;19.390;-99.256;2023-03-01T13:37:27;10.77;;;8.65;;
20954;SDS011;10636;19.390;-99.256;2023-03-01T13:45:59;13.07;;;8.75;;
20954;SDS011;10636;19.390;-99.256;2023-03-01T13:48:29;10.82;;;7.90;;
20954;SDS011;10636;19.390;-99.256;2023-03-01T13:51:01;9.73;;;7.97;;
20954;SDS011;10636;19.390;-99.256;2023-03-01T13:53:31;10.50;;;8.30;;
20954;SDS011;10636;19.390;-99.256;2023-03-01T13:56:07;9.63;;;7.45;;
20954;SDS011;10636;19.390;-99.256;2023-03-01T13:58:49;13.30;;;7.70;;
20954;SDS011;10636;19.390;-99.256;2023-03-01T14:01:21;11.55;;;7.97;;
20954;SDS011;10636;19.390;-99.256;2023-03-01T14:03:52;11.88;;;7.97;;
20954;SDS011;10636;19.390;-99.256;2023-03-01T14:06:24;10.30;;;7.70;;
20954;SDS011;10636;19.390;-99.256;2023-03-01T14:09:00;11.57;;;8.10;;
20954;SDS011;10636;19.390;-99.256;2023-03-01T14:14:30;10.60;;;8.55;;
20954;SDS011;10636;19.390;-99.256;2023-03-01T14:17:19;10.75;;;8.52;;
20954;SDS011;10636;19.390;-99.256;2023-03-01T14:20:17;10.02;;;8.40;;
20954;SDS011;10636;19.390;-99.256;2023-03-01T14:22:47;11.10;;;8.95;;
20954;SDS011;10636;19.390;-99.256;2023-03-01T14:25:21;9.77;;;8.75;;
20954;SDS011;10636;19.390;-99.256;2023-03-01T14:27:58;10.10;;;8.65;;
20954;SDS011;10636;19.390;-99.256;2023-03-01T14:30:32;12.73;;;8.85;;
20954;SDS011;10636;19.390;-99.256;2023-03-01T14:33:05;11.02;;;9.38;;
20954;SDS011;10636;19.390;-99.256;2023-03-01T14:35:51;10.85;;;9.35;;
20954;SDS011;10636;19.390;-99.256;2023-03-01T14:38:22;13.90;;;10.10;;
20954;SDS011;10636;19.390;-99.256;2023-03-01T14:40:56;11.25;;;10.02;;
20954;SDS011;10636;19.390;-99.256;2023-03-01T14:43:28;11.98;;;10.05;;
20954;SDS011;10636;19.390;-99.256;2023-03-01T14:45:59;12.98;;;10.63;;
20954;SDS011;10636;19.390;-99.256;2023-03-01T14:48:28;11.10;;;10.00;;
20954;SDS011;10636;19.390;-99.256;2023-03-01T14:50:58;13.15;;;10.90;;
20954;SDS011;10636;19.390;-99.256;2023-03-01T14:53:27;12.77;;;10.52;;
20954;SDS011;10636;19.390;-99.256;2023-03-01T14:55:59;16.42;;;10.27;;
20954;SDS011;10636;19.390;-99.256;2023-03-01T14:58:31;12.73;;;11.13;;
20954;SDS011;10636;19.390;-99.256;2023-03-01T15:01:03;13.27;;;10.57;;
20954;SDS011;10636;19.390;-99.256;2023-03-01T15:03:34;15.65;;;11.13;;
20954;SDS011;10636;19.390;-99.256;2023-03-01T15:06:04;15.35;;;10.80;;
20954;SDS011;10636;19.390;-99.256;2023-03-01T15:08:34;16.15;;;11.70;;
20954;SDS011;10636;19.390;-99.256;2023-03-01T15:11:05;14.07;;;11.43;;
20954;SDS011;10636;19.390;-99.256;2023-03-01T15:13:48;16.10;;;12.07;;
20954;SDS011;10636;19.390;-99.256;2023-03-01T15:16:19;14.07;;;11.88;;
20954;SDS011;10636;19.390;-99.256;2023-03-01T15:18:51;16.35;;;11.30;;